CES5431 ZSSS-ZUCK
Flight info
| Callsign | CES5431 |
|---|---|
| Flight time | 2h 33m |
| Altitude | 34100 |
| Route | PIK72D PIKAS G330 UNTAN G345 OLRIS R343 MADUK W51 LEGIV W164 ADGOL W50 IKUBA/K0854S1100 W50 XSH W80 IRPOG IRPOG4F |
| Aircraft | A320/M-SDE3FGHIRWY/LB1 |
Departure
| Time | 2026-04-29 16:52 |
|---|---|
| Airport | Shanghai Hongqiao International Airport (ZSSS) |
Arrival
| Time | 2026-04-29 19:25 |
|---|---|
| Airport | Chongqing Jiangbei International Airport (ZUCK) |
| Time | Latitude | Longitude | Altitude | Speed | Heading |
|---|---|---|---|---|---|
| 2026-04-29 16:45 | 31.19961 | 121.32963 | 20 ft | 0 kts | 179° |
| 2026-04-29 16:45 | 31.19960 | 121.32963 | 20 ft | 1 kts | 179° |
| 2026-04-29 16:45 | 31.19947 | 121.32965 | 22 ft | 3 kts | 172° |
| 2026-04-29 16:45 | 31.19925 | 121.32977 | 20 ft | 4 kts | 147° |
| 2026-04-29 16:46 | 31.19898 | 121.33007 | 19 ft | 6 kts | 133° |
| 2026-04-29 16:46 | 31.19865 | 121.33048 | 19 ft | 8 kts | 139° |
| 2026-04-29 16:46 | 31.19805 | 121.33055 | 19 ft | 10 kts | 178° |
| 2026-04-29 16:46 | 31.19730 | 121.33059 | 19 ft | 12 kts | 177° |
| 2026-04-29 16:47 | 31.19642 | 121.33063 | 19 ft | 14 kts | 177° |
| 2026-04-29 16:47 | 31.19540 | 121.33069 | 19 ft | 16 kts | 178° |
| 2026-04-29 16:47 | 31.19424 | 121.33076 | 19 ft | 18 kts | 177° |
| 2026-04-29 16:47 | 31.19293 | 121.33082 | 18 ft | 20 kts | 179° |
| 2026-04-29 16:48 | 31.19151 | 121.33090 | 19 ft | 21 kts | 177° |
| 2026-04-29 16:48 | 31.18996 | 121.33098 | 19 ft | 23 kts | 178° |
| 2026-04-29 16:48 | 31.18830 | 121.33107 | 19 ft | 25 kts | 177° |
| 2026-04-29 16:48 | 31.18654 | 121.33117 | 19 ft | 24 kts | 177° |
| 2026-04-29 16:49 | 31.18528 | 121.33124 | 19 ft | 16 kts | 178° |
| 2026-04-29 16:49 | 31.18408 | 121.33130 | 19 ft | 18 kts | 177° |
| 2026-04-29 16:49 | 31.18346 | 121.33165 | 19 ft | 11 kts | 115° |
| 2026-04-29 16:49 | 31.18344 | 121.33258 | 19 ft | 13 kts | 87° |
| 2026-04-29 16:50 | 31.18348 | 121.33369 | 19 ft | 15 kts | 87° |
| 2026-04-29 16:50 | 31.18354 | 121.33495 | 19 ft | 17 kts | 87° |
| 2026-04-29 16:50 | 31.18359 | 121.33636 | 19 ft | 19 kts | 87° |
| 2026-04-29 16:50 | 31.18392 | 121.33703 | 18 ft | 11 kts | 359° |
| 2026-04-29 16:51 | 31.18451 | 121.33702 | 18 ft | 0 kts | 358° |
| 2026-04-29 16:51 | 31.18461 | 121.33702 | 18 ft | 2 kts | 358° |
| 2026-04-29 16:51 | 31.18497 | 121.33700 | 18 ft | 17 kts | 358° |
| 2026-04-29 16:51 | 31.18859 | 121.33680 | 18 ft | 85 kts | 358° |
| 2026-04-29 16:52 | 31.19632 | 121.33638 | 20 ft | 135 kts | 357° |
| 2026-04-29 16:52 | 31.20707 | 121.33581 | 65 ft | 170 kts | 358° |
| 2026-04-29 16:52 | 31.21897 | 121.33508 | 736 ft | 169 kts | 355° |
| 2026-04-29 16:52 | 31.23053 | 121.33382 | 1510 ft | 172 kts | 354° |
| 2026-04-29 16:53 | 31.24314 | 121.33235 | 1850 ft | 194 kts | 354° |
| 2026-04-29 16:53 | 31.25742 | 121.33071 | 2144 ft | 219 kts | 354° |
| 2026-04-29 16:53 | 31.27336 | 121.32883 | 2579 ft | 242 kts | 352° |
| 2026-04-29 16:53 | 31.28921 | 121.32136 | 3213 ft | 256 kts | 321° |
| 2026-04-29 16:54 | 31.30182 | 121.30632 | 4104 ft | 261 kts | 313° |
| 2026-04-29 16:54 | 31.31423 | 121.29043 | 4714 ft | 266 kts | 312° |
| 2026-04-29 16:54 | 31.32673 | 121.27438 | 4889 ft | 266 kts | 311° |
| 2026-04-29 16:54 | 31.33916 | 121.25843 | 4928 ft | 264 kts | 312° |
| 2026-04-29 16:55 | 31.35138 | 121.24280 | 4930 ft | 265 kts | 312° |
| 2026-04-29 16:55 | 31.36381 | 121.22689 | 4935 ft | 265 kts | 312° |
| 2026-04-29 16:55 | 31.37622 | 121.21102 | 4937 ft | 264 kts | 312° |
| 2026-04-29 16:55 | 31.38864 | 121.19517 | 4931 ft | 264 kts | 311° |
| 2026-04-29 16:56 | 31.40100 | 121.17942 | 4927 ft | 262 kts | 312° |
| 2026-04-29 16:56 | 31.41351 | 121.16343 | 5280 ft | 269 kts | 312° |
| 2026-04-29 16:56 | 31.42609 | 121.14730 | 6197 ft | 268 kts | 311° |
| 2026-04-29 16:56 | 31.43858 | 121.13129 | 6997 ft | 271 kts | 311° |
| 2026-04-29 16:57 | 31.45271 | 121.11647 | 7734 ft | 277 kts | 324° |
| 2026-04-29 16:57 | 31.46997 | 121.10607 | 8491 ft | 282 kts | 333° |
| 2026-04-29 16:57 | 31.48804 | 121.09660 | 9244 ft | 285 kts | 332° |
| 2026-04-29 16:57 | 31.50622 | 121.08698 | 9985 ft | 289 kts | 332° |
| 2026-04-29 16:58 | 31.52475 | 121.07710 | 10483 ft | 301 kts | 332° |
| 2026-04-29 16:58 | 31.54450 | 121.06649 | 10630 ft | 324 kts | 332° |
| 2026-04-29 16:58 | 31.56533 | 121.05530 | 10889 ft | 340 kts | 332° |
| 2026-04-29 16:58 | 31.58705 | 121.04372 | 11461 ft | 345 kts | 332° |
| 2026-04-29 16:59 | 31.60873 | 121.03225 | 12097 ft | 348 kts | 332° |
| 2026-04-29 16:59 | 31.63088 | 121.02051 | 12746 ft | 350 kts | 332° |
| 2026-04-29 16:59 | 31.65314 | 121.00869 | 13394 ft | 352 kts | 332° |
| 2026-04-29 16:59 | 31.67550 | 120.99679 | 14034 ft | 354 kts | 332° |
| 2026-04-29 17:00 | 31.69805 | 120.98478 | 14713 ft | 357 kts | 332° |
| 2026-04-29 17:00 | 31.72078 | 120.97267 | 15089 ft | 361 kts | 331° |
| 2026-04-29 17:00 | 31.74371 | 120.96041 | 15610 ft | 364 kts | 331° |
| 2026-04-29 17:00 | 31.76685 | 120.94803 | 16122 ft | 367 kts | 331° |
| 2026-04-29 17:01 | 31.79020 | 120.93556 | 16643 ft | 370 kts | 331° |
| 2026-04-29 17:01 | 31.81339 | 120.92315 | 17146 ft | 373 kts | 331° |
| 2026-04-29 17:01 | 31.83712 | 120.91047 | 17665 ft | 376 kts | 331° |
| 2026-04-29 17:01 | 31.86102 | 120.89768 | 18195 ft | 379 kts | 330° |
| 2026-04-29 17:02 | 31.88516 | 120.88476 | 18678 ft | 382 kts | 330° |
| 2026-04-29 17:02 | 31.90942 | 120.87178 | 19164 ft | 384 kts | 330° |
| 2026-04-29 17:02 | 31.93380 | 120.85872 | 19668 ft | 386 kts | 330° |
| 2026-04-29 17:02 | 31.95825 | 120.84561 | 20179 ft | 387 kts | 329° |
| 2026-04-29 17:03 | 31.98279 | 120.83240 | 20687 ft | 388 kts | 329° |
| 2026-04-29 17:03 | 32.00711 | 120.81931 | 21170 ft | 390 kts | 329° |
| 2026-04-29 17:03 | 32.03181 | 120.80599 | 21639 ft | 392 kts | 329° |
| 2026-04-29 17:03 | 32.05664 | 120.79260 | 22089 ft | 393 kts | 329° |
| 2026-04-29 17:04 | 32.08161 | 120.77914 | 22530 ft | 395 kts | 329° |
| 2026-04-29 17:04 | 32.10664 | 120.76559 | 22956 ft | 396 kts | 327° |
| 2026-04-29 17:04 | 32.12980 | 120.74869 | 23371 ft | 388 kts | 315° |
| 2026-04-29 17:04 | 32.14864 | 120.72637 | 23779 ft | 381 kts | 302° |
| 2026-04-29 17:05 | 32.16253 | 120.69999 | 24123 ft | 377 kts | 291° |
| 2026-04-29 17:05 | 32.17105 | 120.67098 | 24463 ft | 374 kts | 280° |
| 2026-04-29 17:05 | 32.17451 | 120.64097 | 24800 ft | 375 kts | 274° |
| 2026-04-29 17:05 | 32.17707 | 120.61035 | 25153 ft | 376 kts | 274° |
| 2026-04-29 17:06 | 32.17965 | 120.57951 | 25503 ft | 378 kts | 274° |
| 2026-04-29 17:06 | 32.18222 | 120.54861 | 25852 ft | 379 kts | 274° |
| 2026-04-29 17:06 | 32.18477 | 120.51761 | 26196 ft | 381 kts | 274° |
| 2026-04-29 17:06 | 32.18733 | 120.48645 | 26545 ft | 382 kts | 274° |
| 2026-04-29 17:07 | 32.18991 | 120.45517 | 26891 ft | 384 kts | 274° |
| 2026-04-29 17:07 | 32.19162 | 120.43442 | 27115 ft | 385 kts | 274° |
| 2026-04-29 17:07 | 32.19504 | 120.39268 | 27576 ft | 387 kts | 274° |
| 2026-04-29 17:07 | 32.19764 | 120.36100 | 27925 ft | 388 kts | 274° |
| 2026-04-29 17:08 | 32.20020 | 120.32925 | 28271 ft | 390 kts | 272° |
| 2026-04-29 17:08 | 32.19945 | 120.29728 | 28613 ft | 390 kts | 262° |
| 2026-04-29 17:08 | 32.19330 | 120.26618 | 29077 ft | 390 kts | 252° |
| 2026-04-29 17:08 | 32.18221 | 120.23700 | 29554 ft | 391 kts | 245° |
| 2026-04-29 17:09 | 32.16928 | 120.20881 | 30030 ft | 389 kts | 245° |
| 2026-04-29 17:09 | 32.15660 | 120.18115 | 30481 ft | 388 kts | 245° |
| 2026-04-29 17:09 | 32.14381 | 120.15322 | 30883 ft | 386 kts | 245° |
| 2026-04-29 17:09 | 32.13106 | 120.12537 | 31275 ft | 385 kts | 245° |
| 2026-04-29 17:10 | 32.11835 | 120.09761 | 31670 ft | 384 kts | 245° |
| 2026-04-29 17:10 | 32.10564 | 120.06996 | 32061 ft | 383 kts | 245° |
| 2026-04-29 17:10 | 32.09297 | 120.04238 | 32455 ft | 382 kts | 245° |
| 2026-04-29 17:10 | 32.08033 | 120.01485 | 32846 ft | 381 kts | 245° |
| 2026-04-29 17:11 | 32.06771 | 119.98742 | 33254 ft | 380 kts | 245° |
| 2026-04-29 17:11 | 32.05511 | 119.96008 | 33654 ft | 379 kts | 244° |
| 2026-04-29 17:11 | 32.04272 | 119.93323 | 34045 ft | 378 kts | 245° |
| 2026-04-29 17:11 | 32.03024 | 119.90600 | 34264 ft | 378 kts | 245° |
| 2026-04-29 17:12 | 32.00521 | 119.85048 | 34305 ft | 389 kts | 245° |
| 2026-04-29 17:12 | 31.98406 | 119.80344 | 34306 ft | 392 kts | 245° |
| 2026-04-29 17:13 | 31.95424 | 119.73758 | 34310 ft | 392 kts | 245° |
| 2026-04-29 17:13 | 31.92872 | 119.68087 | 34308 ft | 392 kts | 245° |
| 2026-04-29 17:14 | 31.90423 | 119.62361 | 34314 ft | 392 kts | 246° |
| 2026-04-29 17:14 | 31.88000 | 119.56619 | 34315 ft | 392 kts | 246° |
| 2026-04-29 17:15 | 31.85555 | 119.50890 | 34326 ft | 392 kts | 246° |
| 2026-04-29 17:15 | 31.83110 | 119.45211 | 34334 ft | 392 kts | 245° |
| 2026-04-29 17:16 | 31.80642 | 119.39506 | 34333 ft | 391 kts | 245° |
| 2026-04-29 17:16 | 31.78160 | 119.33809 | 34332 ft | 391 kts | 245° |
| 2026-04-29 17:17 | 31.75660 | 119.28143 | 34336 ft | 391 kts | 245° |
| 2026-04-29 17:17 | 31.73177 | 119.22510 | 34332 ft | 390 kts | 245° |
| 2026-04-29 17:18 | 31.70683 | 119.16851 | 34337 ft | 390 kts | 245° |
| 2026-04-29 17:18 | 31.68182 | 119.11194 | 34336 ft | 390 kts | 245° |
| 2026-04-29 17:19 | 31.65921 | 119.05435 | 34336 ft | 387 kts | 255° |
| 2026-04-29 17:19 | 31.65392 | 118.99181 | 34334 ft | 388 kts | 272° |
| 2026-04-29 17:20 | 31.65879 | 118.92911 | 34337 ft | 388 kts | 272° |
| 2026-04-29 17:20 | 31.66348 | 118.86598 | 34335 ft | 388 kts | 272° |
| 2026-04-29 17:21 | 31.66815 | 118.80289 | 34342 ft | 388 kts | 272° |
| 2026-04-29 17:21 | 31.67284 | 118.73982 | 34337 ft | 387 kts | 272° |
| 2026-04-29 17:22 | 31.67744 | 118.67729 | 34341 ft | 387 kts | 272° |
| 2026-04-29 17:22 | 31.68198 | 118.61440 | 34340 ft | 387 kts | 272° |
| 2026-04-29 17:23 | 31.68652 | 118.55154 | 34345 ft | 386 kts | 272° |
| 2026-04-29 17:23 | 31.69106 | 118.48881 | 34344 ft | 386 kts | 272° |
| 2026-04-29 17:24 | 31.69552 | 118.42654 | 34344 ft | 385 kts | 272° |
| 2026-04-29 17:24 | 31.69997 | 118.36392 | 34345 ft | 384 kts | 272° |
| 2026-04-29 17:25 | 31.70442 | 118.30138 | 34346 ft | 384 kts | 271° |
| 2026-04-29 17:25 | 31.70877 | 118.23889 | 34339 ft | 384 kts | 271° |
| 2026-04-29 17:26 | 31.71309 | 118.17689 | 34344 ft | 383 kts | 271° |
| 2026-04-29 17:26 | 31.71669 | 118.11454 | 34341 ft | 381 kts | 266° |
| 2026-04-29 17:27 | 31.70769 | 118.05380 | 34469 ft | 374 kts | 253° |
| 2026-04-29 17:27 | 31.70164 | 118.02457 | 34337 ft | 363 kts | 254° |
| 2026-04-29 17:27 | 31.69575 | 117.99591 | 34321 ft | 359 kts | 254° |
| 2026-04-29 17:28 | 31.68408 | 117.93902 | 34321 ft | 358 kts | 254° |
| 2026-04-29 17:28 | 31.67247 | 117.88268 | 34321 ft | 358 kts | 253° |
| 2026-04-29 17:29 | 31.66069 | 117.82597 | 34320 ft | 357 kts | 254° |
| 2026-04-29 17:29 | 31.65088 | 117.77890 | 34319 ft | 357 kts | 254° |
| 2026-04-29 17:30 | 31.63713 | 117.71281 | 34322 ft | 357 kts | 254° |
| 2026-04-29 17:30 | 31.62537 | 117.65663 | 34323 ft | 357 kts | 253° |
| 2026-04-29 17:31 | 31.61347 | 117.60008 | 34325 ft | 357 kts | 254° |
| 2026-04-29 17:31 | 31.60208 | 117.54342 | 34326 ft | 357 kts | 255° |
| 2026-04-29 17:32 | 31.59213 | 117.48636 | 34329 ft | 357 kts | 256° |
| 2026-04-29 17:32 | 31.58241 | 117.42967 | 34332 ft | 357 kts | 256° |
| 2026-04-29 17:33 | 31.57241 | 117.37267 | 34326 ft | 357 kts | 255° |
| 2026-04-29 17:33 | 31.56223 | 117.31577 | 34332 ft | 357 kts | 255° |
| 2026-04-29 17:34 | 31.55206 | 117.25922 | 34330 ft | 357 kts | 256° |
| 2026-04-29 17:34 | 31.54195 | 117.20226 | 34330 ft | 357 kts | 256° |
| 2026-04-29 17:35 | 31.52688 | 117.11677 | 34331 ft | 357 kts | 256° |
| 2026-04-29 17:36 | 31.51673 | 117.05981 | 34328 ft | 357 kts | 256° |
| 2026-04-29 17:36 | 31.50667 | 117.00324 | 34329 ft | 357 kts | 256° |
| 2026-04-29 17:37 | 31.49653 | 116.94629 | 34327 ft | 357 kts | 256° |
| 2026-04-29 17:37 | 31.48631 | 116.88929 | 34327 ft | 358 kts | 256° |
| 2026-04-29 17:38 | 31.47032 | 116.83460 | 34324 ft | 357 kts | 241° |
| 2026-04-29 17:38 | 31.44098 | 116.78794 | 34318 ft | 359 kts | 236° |
| 2026-04-29 17:39 | 31.41059 | 116.74152 | 34321 ft | 359 kts | 236° |
| 2026-04-29 17:39 | 31.38024 | 116.69500 | 34319 ft | 359 kts | 236° |
| 2026-04-29 17:40 | 31.34983 | 116.64853 | 34320 ft | 360 kts | 236° |
| 2026-04-29 17:40 | 31.31939 | 116.60208 | 34324 ft | 360 kts | 236° |
| 2026-04-29 17:41 | 31.28917 | 116.55596 | 34321 ft | 360 kts | 236° |
| 2026-04-29 17:41 | 31.25867 | 116.50957 | 34322 ft | 360 kts | 236° |
| 2026-04-29 17:42 | 31.22817 | 116.46319 | 34331 ft | 360 kts | 236° |
| 2026-04-29 17:42 | 31.19768 | 116.41684 | 34331 ft | 359 kts | 236° |
| 2026-04-29 17:43 | 31.16738 | 116.37091 | 34330 ft | 359 kts | 236° |
| 2026-04-29 17:43 | 31.13687 | 116.32474 | 34346 ft | 359 kts | 236° |
| 2026-04-29 17:44 | 31.10636 | 116.27859 | 34350 ft | 359 kts | 236° |
| 2026-04-29 17:44 | 31.07588 | 116.23250 | 34343 ft | 359 kts | 236° |
| 2026-04-29 17:45 | 31.04554 | 116.18668 | 34346 ft | 360 kts | 236° |
| 2026-04-29 17:45 | 31.01494 | 116.14056 | 34341 ft | 359 kts | 236° |
| 2026-04-29 17:46 | 30.98435 | 116.09447 | 34344 ft | 360 kts | 236° |
| 2026-04-29 17:46 | 30.95376 | 116.04845 | 34346 ft | 359 kts | 236° |
| 2026-04-29 17:47 | 30.92337 | 116.00271 | 34345 ft | 359 kts | 236° |
| 2026-04-29 17:47 | 30.89283 | 115.95677 | 34342 ft | 359 kts | 236° |
| 2026-04-29 17:48 | 30.86221 | 115.91087 | 34338 ft | 359 kts | 236° |
| 2026-04-29 17:48 | 30.83163 | 115.86483 | 34336 ft | 359 kts | 236° |
| 2026-04-29 17:49 | 30.80134 | 115.81891 | 34519 ft | 362 kts | 236° |
| 2026-04-29 17:49 | 30.78607 | 115.79572 | 34836 ft | 362 kts | 237° |
| 2026-04-29 17:49 | 30.77076 | 115.77248 | 35117 ft | 362 kts | 236° |
| 2026-04-29 17:49 | 30.75545 | 115.74924 | 35398 ft | 363 kts | 237° |
| 2026-04-29 17:50 | 30.74008 | 115.72593 | 35669 ft | 363 kts | 237° |
| 2026-04-29 17:50 | 30.72468 | 115.70264 | 35939 ft | 364 kts | 237° |
| 2026-04-29 17:50 | 30.70927 | 115.67936 | 36198 ft | 364 kts | 237° |
| 2026-04-29 17:50 | 30.69379 | 115.65597 | 36313 ft | 366 kts | 237° |
| 2026-04-29 17:51 | 30.67828 | 115.63251 | 36331 ft | 366 kts | 237° |
| 2026-04-29 17:51 | 30.64743 | 115.58592 | 36326 ft | 367 kts | 237° |
| 2026-04-29 17:52 | 30.61627 | 115.53893 | 36326 ft | 367 kts | 237° |
| 2026-04-29 17:52 | 30.58509 | 115.49194 | 36322 ft | 368 kts | 237° |
| 2026-04-29 17:53 | 30.55385 | 115.44495 | 36321 ft | 368 kts | 237° |
| 2026-04-29 17:53 | 30.52276 | 115.39828 | 36317 ft | 368 kts | 237° |
| 2026-04-29 17:54 | 30.49141 | 115.35128 | 36320 ft | 368 kts | 237° |
| 2026-04-29 17:54 | 30.46026 | 115.30407 | 36311 ft | 367 kts | 240° |
| 2026-04-29 17:55 | 30.44157 | 115.25007 | 36309 ft | 363 kts | 260° |
| 2026-04-29 17:55 | 30.44265 | 115.19187 | 36306 ft | 368 kts | 273° |
| 2026-04-29 17:56 | 30.44892 | 115.13302 | 36311 ft | 369 kts | 273° |
| 2026-04-29 17:56 | 30.45515 | 115.07403 | 36317 ft | 369 kts | 273° |
| 2026-04-29 17:57 | 30.46128 | 115.01492 | 36321 ft | 369 kts | 273° |
| 2026-04-29 17:57 | 30.46728 | 114.95620 | 36327 ft | 369 kts | 273° |
| 2026-04-29 17:58 | 30.47329 | 114.89704 | 36331 ft | 370 kts | 273° |
| 2026-04-29 17:58 | 30.47932 | 114.83787 | 36332 ft | 370 kts | 273° |
| 2026-04-29 17:59 | 30.48534 | 114.77867 | 36333 ft | 370 kts | 273° |
| 2026-04-29 17:59 | 30.49131 | 114.71986 | 36330 ft | 370 kts | 273° |
| 2026-04-29 18:00 | 30.49730 | 114.66065 | 36326 ft | 370 kts | 273° |
| 2026-04-29 18:00 | 30.50321 | 114.60148 | 36326 ft | 370 kts | 273° |
| 2026-04-29 18:01 | 30.50915 | 114.54225 | 36335 ft | 370 kts | 273° |
| 2026-04-29 18:01 | 30.51500 | 114.48304 | 36328 ft | 370 kts | 273° |
| 2026-04-29 18:02 | 30.52011 | 114.43073 | 36332 ft | 370 kts | 273° |
| 2026-04-29 18:02 | 30.52592 | 114.37147 | 36329 ft | 370 kts | 273° |
| 2026-04-29 18:03 | 30.53170 | 114.31213 | 36331 ft | 370 kts | 273° |
| 2026-04-29 18:03 | 30.53751 | 114.25283 | 36332 ft | 370 kts | 273° |
| 2026-04-29 18:04 | 30.54324 | 114.19342 | 36333 ft | 370 kts | 273° |
| 2026-04-29 18:04 | 30.54787 | 114.14406 | 36331 ft | 370 kts | 273° |
| 2026-04-29 18:05 | 30.55443 | 114.07499 | 36331 ft | 371 kts | 273° |
| 2026-04-29 18:05 | 30.55926 | 114.02559 | 36328 ft | 371 kts | 274° |
| 2026-04-29 18:06 | 30.56496 | 113.96610 | 36326 ft | 371 kts | 273° |
| 2026-04-29 18:06 | 30.57049 | 113.90657 | 36323 ft | 371 kts | 273° |
| 2026-04-29 18:07 | 30.57590 | 113.84738 | 36319 ft | 372 kts | 274° |
| 2026-04-29 18:07 | 30.57573 | 113.78772 | 36315 ft | 370 kts | 266° |
| 2026-04-29 18:08 | 30.57344 | 113.72805 | 36314 ft | 370 kts | 266° |
| 2026-04-29 18:08 | 30.57122 | 113.66833 | 36313 ft | 371 kts | 266° |
| 2026-04-29 18:09 | 30.56901 | 113.60881 | 36311 ft | 371 kts | 266° |
| 2026-04-29 18:09 | 30.56628 | 113.53887 | 36313 ft | 371 kts | 266° |
| 2026-04-29 18:10 | 30.56396 | 113.47927 | 36313 ft | 372 kts | 267° |
| 2026-04-29 18:10 | 30.56165 | 113.41926 | 36315 ft | 372 kts | 267° |
| 2026-04-29 18:11 | 30.55973 | 113.36923 | 36309 ft | 372 kts | 267° |
| 2026-04-29 18:11 | 30.55731 | 113.30926 | 36312 ft | 373 kts | 267° |
| 2026-04-29 18:12 | 30.55493 | 113.24952 | 36309 ft | 373 kts | 267° |
| 2026-04-29 18:12 | 30.55249 | 113.18932 | 36311 ft | 373 kts | 267° |
| 2026-04-29 18:13 | 30.54953 | 113.11931 | 36311 ft | 374 kts | 267° |
| 2026-04-29 18:13 | 30.54745 | 113.06921 | 36314 ft | 374 kts | 267° |
| 2026-04-29 18:14 | 30.54490 | 113.00888 | 36316 ft | 374 kts | 267° |
| 2026-04-29 18:14 | 30.54235 | 112.94878 | 36312 ft | 374 kts | 267° |
| 2026-04-29 18:15 | 30.53978 | 112.88882 | 36313 ft | 374 kts | 267° |
| 2026-04-29 18:15 | 30.53719 | 112.82853 | 36314 ft | 374 kts | 267° |
| 2026-04-29 18:16 | 30.53458 | 112.76826 | 36318 ft | 374 kts | 267° |
| 2026-04-29 18:16 | 30.53199 | 112.70833 | 36313 ft | 374 kts | 267° |
| 2026-04-29 18:17 | 30.52927 | 112.64805 | 36315 ft | 375 kts | 267° |
| 2026-04-29 18:17 | 30.52649 | 112.58767 | 36313 ft | 375 kts | 267° |
| 2026-04-29 18:18 | 30.52372 | 112.52733 | 36313 ft | 375 kts | 267° |
| 2026-04-29 18:18 | 30.52101 | 112.46739 | 36314 ft | 375 kts | 267° |
| 2026-04-29 18:19 | 30.51822 | 112.40699 | 36315 ft | 375 kts | 267° |
| 2026-04-29 18:19 | 30.51539 | 112.34661 | 36316 ft | 375 kts | 267° |
| 2026-04-29 18:20 | 30.51253 | 112.28627 | 36312 ft | 375 kts | 267° |
| 2026-04-29 18:20 | 30.50966 | 112.22626 | 36314 ft | 375 kts | 267° |
| 2026-04-29 18:21 | 30.50671 | 112.16593 | 36315 ft | 375 kts | 267° |
| 2026-04-29 18:21 | 30.50376 | 112.10557 | 36313 ft | 375 kts | 267° |
| 2026-04-29 18:22 | 30.50080 | 112.04523 | 36311 ft | 375 kts | 268° |
| 2026-04-29 18:22 | 30.49781 | 111.98488 | 36312 ft | 375 kts | 268° |
| 2026-04-29 18:23 | 30.49480 | 111.92496 | 36311 ft | 375 kts | 268° |
| 2026-04-29 18:23 | 30.49177 | 111.86468 | 36314 ft | 375 kts | 268° |
| 2026-04-29 18:24 | 30.48869 | 111.80435 | 36316 ft | 374 kts | 268° |
| 2026-04-29 18:24 | 30.48551 | 111.74412 | 36314 ft | 374 kts | 268° |
| 2026-04-29 18:25 | 30.48242 | 111.68426 | 36315 ft | 374 kts | 268° |
| 2026-04-29 18:25 | 30.47920 | 111.62407 | 36312 ft | 374 kts | 268° |
| 2026-04-29 18:26 | 30.47595 | 111.56385 | 36314 ft | 374 kts | 268° |
| 2026-04-29 18:26 | 30.47267 | 111.50367 | 36312 ft | 374 kts | 268° |
| 2026-04-29 18:27 | 30.46608 | 111.44419 | 36313 ft | 375 kts | 263° |
| 2026-04-29 18:27 | 30.45787 | 111.38452 | 36310 ft | 375 kts | 263° |
| 2026-04-29 18:28 | 30.44975 | 111.32481 | 36314 ft | 375 kts | 263° |
| 2026-04-29 18:28 | 30.44145 | 111.26515 | 36316 ft | 375 kts | 263° |
| 2026-04-29 18:29 | 30.43311 | 111.20552 | 36317 ft | 375 kts | 263° |
| 2026-04-29 18:29 | 30.42484 | 111.14627 | 36323 ft | 375 kts | 264° |
| 2026-04-29 18:30 | 30.41649 | 111.08673 | 36326 ft | 374 kts | 264° |
| 2026-04-29 18:30 | 30.40811 | 111.02721 | 36322 ft | 374 kts | 264° |
| 2026-04-29 18:31 | 30.39974 | 110.96772 | 36326 ft | 374 kts | 264° |
| 2026-04-29 18:31 | 30.39144 | 110.90866 | 36328 ft | 374 kts | 264° |
| 2026-04-29 18:32 | 30.38299 | 110.84926 | 36333 ft | 374 kts | 264° |
| 2026-04-29 18:32 | 30.37024 | 110.76032 | 36328 ft | 373 kts | 264° |
| 2026-04-29 18:33 | 30.36186 | 110.70149 | 36326 ft | 373 kts | 264° |
| 2026-04-29 18:33 | 30.35336 | 110.64225 | 36330 ft | 372 kts | 264° |
| 2026-04-29 18:34 | 30.34624 | 110.59315 | 36332 ft | 373 kts | 264° |
| 2026-04-29 18:34 | 30.33625 | 110.52413 | 36328 ft | 372 kts | 264° |
| 2026-04-29 18:35 | 30.32777 | 110.46559 | 36326 ft | 371 kts | 264° |
| 2026-04-29 18:35 | 30.31920 | 110.40680 | 36332 ft | 370 kts | 264° |
| 2026-04-29 18:36 | 30.31061 | 110.34807 | 36321 ft | 370 kts | 265° |
| 2026-04-29 18:36 | 30.30202 | 110.28929 | 36334 ft | 370 kts | 265° |
| 2026-04-29 18:37 | 30.29339 | 110.23055 | 36320 ft | 370 kts | 265° |
| 2026-04-29 18:37 | 30.28482 | 110.17233 | 36320 ft | 369 kts | 265° |
| 2026-04-29 18:38 | 30.27617 | 110.11386 | 36319 ft | 368 kts | 265° |
| 2026-04-29 18:38 | 30.26749 | 110.05547 | 36323 ft | 368 kts | 265° |
| 2026-04-29 18:39 | 30.25884 | 109.99723 | 36322 ft | 367 kts | 265° |
| 2026-04-29 18:39 | 30.25023 | 109.93965 | 36315 ft | 365 kts | 265° |
| 2026-04-29 18:40 | 30.24154 | 109.88179 | 36318 ft | 364 kts | 265° |
| 2026-04-29 18:40 | 30.23280 | 109.82407 | 36302 ft | 362 kts | 266° |
| 2026-04-29 18:41 | 30.21550 | 109.70935 | 36307 ft | 363 kts | 266° |
| 2026-04-29 18:42 | 30.20680 | 109.65179 | 36307 ft | 364 kts | 266° |
| 2026-04-29 18:42 | 30.19703 | 109.59460 | 36303 ft | 366 kts | 260° |
| 2026-04-29 18:43 | 30.18208 | 109.53829 | 36301 ft | 367 kts | 261° |
| 2026-04-29 18:43 | 30.16727 | 109.48232 | 36299 ft | 366 kts | 261° |
| 2026-04-29 18:44 | 30.15235 | 109.42609 | 36301 ft | 366 kts | 261° |
| 2026-04-29 18:44 | 30.13725 | 109.36983 | 36301 ft | 366 kts | 261° |
| 2026-04-29 18:45 | 30.12232 | 109.31366 | 36302 ft | 366 kts | 261° |
| 2026-04-29 18:45 | 30.10748 | 109.25777 | 36305 ft | 366 kts | 261° |
| 2026-04-29 18:46 | 30.09254 | 109.20161 | 36303 ft | 366 kts | 261° |
| 2026-04-29 18:46 | 30.07747 | 109.14557 | 36067 ft | 365 kts | 261° |
| 2026-04-29 18:47 | 30.06992 | 109.11763 | 35605 ft | 365 kts | 261° |
| 2026-04-29 18:47 | 30.06238 | 109.08964 | 34969 ft | 367 kts | 260° |
| 2026-04-29 18:47 | 30.05487 | 109.06183 | 34477 ft | 367 kts | 260° |
| 2026-04-29 18:47 | 30.04725 | 109.03363 | 34322 ft | 370 kts | 260° |
| 2026-04-29 18:48 | 30.03187 | 108.97675 | 34311 ft | 373 kts | 260° |
| 2026-04-29 18:48 | 30.01657 | 108.91954 | 34291 ft | 373 kts | 260° |
| 2026-04-29 18:49 | 30.00155 | 108.86219 | 34210 ft | 371 kts | 261° |
| 2026-04-29 18:49 | 29.99407 | 108.83372 | 33565 ft | 371 kts | 260° |
| 2026-04-29 18:49 | 29.98671 | 108.80566 | 32991 ft | 369 kts | 259° |
| 2026-04-29 18:50 | 29.97925 | 108.77734 | 32465 ft | 368 kts | 259° |
| 2026-04-29 18:50 | 29.97178 | 108.74906 | 32287 ft | 370 kts | 259° |
| 2026-04-29 18:50 | 29.95664 | 108.69206 | 32305 ft | 373 kts | 259° |
| 2026-04-29 18:51 | 29.94154 | 108.63490 | 32296 ft | 373 kts | 259° |
| 2026-04-29 18:51 | 29.93401 | 108.60629 | 32047 ft | 372 kts | 258° |
| 2026-04-29 18:51 | 29.92648 | 108.57779 | 31632 ft | 373 kts | 258° |
| 2026-04-29 18:52 | 29.91897 | 108.54948 | 30873 ft | 375 kts | 258° |
| 2026-04-29 18:52 | 29.91136 | 108.52088 | 30059 ft | 370 kts | 257° |
| 2026-04-29 18:52 | 29.90383 | 108.49270 | 29156 ft | 366 kts | 257° |
| 2026-04-29 18:52 | 29.89635 | 108.46478 | 28278 ft | 363 kts | 257° |
| 2026-04-29 18:53 | 29.88894 | 108.43707 | 27442 ft | 361 kts | 257° |
| 2026-04-29 18:53 | 29.88162 | 108.40958 | 26604 ft | 357 kts | 257° |
| 2026-04-29 18:53 | 29.87434 | 108.38227 | 25808 ft | 355 kts | 257° |
| 2026-04-29 18:53 | 29.86717 | 108.35550 | 25032 ft | 354 kts | 257° |
| 2026-04-29 18:54 | 29.85994 | 108.32849 | 24283 ft | 352 kts | 257° |
| 2026-04-29 18:54 | 29.85275 | 108.30156 | 23531 ft | 351 kts | 257° |
| 2026-04-29 18:54 | 29.84560 | 108.27474 | 22680 ft | 349 kts | 257° |
| 2026-04-29 18:54 | 29.83844 | 108.24807 | 21852 ft | 347 kts | 257° |
| 2026-04-29 18:55 | 29.83132 | 108.22167 | 21051 ft | 345 kts | 256° |
| 2026-04-29 18:55 | 29.82423 | 108.19537 | 20272 ft | 343 kts | 256° |
| 2026-04-29 18:55 | 29.81727 | 108.16953 | 19524 ft | 342 kts | 255° |
| 2026-04-29 18:55 | 29.81027 | 108.14346 | 18780 ft | 340 kts | 255° |
| 2026-04-29 18:56 | 29.80329 | 108.11751 | 17988 ft | 339 kts | 255° |
| 2026-04-29 18:56 | 29.79636 | 108.09172 | 17162 ft | 336 kts | 255° |
| 2026-04-29 18:56 | 29.78949 | 108.06616 | 16365 ft | 333 kts | 255° |
| 2026-04-29 18:56 | 29.78266 | 108.04086 | 15590 ft | 330 kts | 255° |
| 2026-04-29 18:57 | 29.77583 | 108.01574 | 14809 ft | 328 kts | 255° |
| 2026-04-29 18:57 | 29.76902 | 107.99080 | 14072 ft | 326 kts | 255° |
| 2026-04-29 18:57 | 29.76228 | 107.96599 | 13250 ft | 324 kts | 254° |
| 2026-04-29 18:57 | 29.75628 | 107.94148 | 12451 ft | 321 kts | 258° |
| 2026-04-29 18:58 | 29.75259 | 107.91619 | 11641 ft | 320 kts | 264° |
| 2026-04-29 18:58 | 29.75092 | 107.89071 | 10868 ft | 319 kts | 266° |
| 2026-04-29 18:58 | 29.74941 | 107.86550 | 10402 ft | 314 kts | 266° |
| 2026-04-29 18:58 | 29.74786 | 107.84037 | 9989 ft | 315 kts | 265° |
| 2026-04-29 18:59 | 29.74631 | 107.81526 | 9551 ft | 315 kts | 265° |
| 2026-04-29 18:59 | 29.74476 | 107.79004 | 9103 ft | 316 kts | 265° |
| 2026-04-29 18:59 | 29.74321 | 107.76479 | 8674 ft | 318 kts | 265° |
| 2026-04-29 18:59 | 29.74164 | 107.73951 | 8220 ft | 312 kts | 265° |
| 2026-04-29 19:00 | 29.74017 | 107.71554 | 7956 ft | 295 kts | 265° |
| 2026-04-29 19:00 | 29.73878 | 107.69273 | 7944 ft | 282 kts | 264° |
| 2026-04-29 19:00 | 29.73740 | 107.67031 | 7944 ft | 281 kts | 265° |
| 2026-04-29 19:00 | 29.73601 | 107.64782 | 7949 ft | 281 kts | 265° |
| 2026-04-29 19:01 | 29.73462 | 107.62530 | 7942 ft | 282 kts | 265° |
| 2026-04-29 19:01 | 29.73323 | 107.60288 | 7948 ft | 281 kts | 265° |
| 2026-04-29 19:01 | 29.73183 | 107.58049 | 7943 ft | 281 kts | 265° |
| 2026-04-29 19:01 | 29.73042 | 107.55807 | 7939 ft | 281 kts | 265° |
| 2026-04-29 19:02 | 29.72902 | 107.53597 | 7943 ft | 281 kts | 265° |
| 2026-04-29 19:02 | 29.72807 | 107.52085 | 7942 ft | 281 kts | 265° |
| 2026-04-29 19:02 | 29.72618 | 107.49113 | 7940 ft | 281 kts | 265° |
| 2026-04-29 19:02 | 29.72477 | 107.46868 | 7941 ft | 281 kts | 265° |
| 2026-04-29 19:03 | 29.72336 | 107.44627 | 7945 ft | 281 kts | 265° |
| 2026-04-29 19:03 | 29.72194 | 107.42383 | 7944 ft | 281 kts | 265° |
| 2026-04-29 19:03 | 29.72053 | 107.40141 | 7937 ft | 281 kts | 265° |
| 2026-04-29 19:03 | 29.71909 | 107.37898 | 7942 ft | 281 kts | 265° |
| 2026-04-29 19:04 | 29.71765 | 107.35687 | 7941 ft | 281 kts | 265° |
| 2026-04-29 19:04 | 29.71617 | 107.33442 | 7943 ft | 281 kts | 265° |
| 2026-04-29 19:04 | 29.71471 | 107.31202 | 7939 ft | 281 kts | 265° |
| 2026-04-29 19:04 | 29.71327 | 107.28961 | 7942 ft | 281 kts | 265° |
| 2026-04-29 19:05 | 29.71184 | 107.26719 | 7940 ft | 281 kts | 265° |
| 2026-04-29 19:05 | 29.71041 | 107.24477 | 7942 ft | 281 kts | 265° |
| 2026-04-29 19:05 | 29.70896 | 107.22237 | 7941 ft | 281 kts | 265° |
| 2026-04-29 19:05 | 29.70751 | 107.19998 | 7942 ft | 281 kts | 265° |
| 2026-04-29 19:06 | 29.70606 | 107.17787 | 7937 ft | 281 kts | 265° |
| 2026-04-29 19:06 | 29.70458 | 107.15549 | 7938 ft | 281 kts | 265° |
| 2026-04-29 19:06 | 29.70163 | 107.11068 | 7938 ft | 281 kts | 265° |
| 2026-04-29 19:07 | 29.70014 | 107.08826 | 7934 ft | 281 kts | 265° |
| 2026-04-29 19:07 | 29.69917 | 107.07350 | 7933 ft | 281 kts | 265° |
| 2026-04-29 19:07 | 29.69720 | 107.04346 | 7939 ft | 281 kts | 265° |
| 2026-04-29 19:07 | 29.69571 | 107.02109 | 7931 ft | 281 kts | 265° |
| 2026-04-29 19:08 | 29.69422 | 106.99913 | 7924 ft | 274 kts | 265° |
| 2026-04-29 19:08 | 29.69278 | 106.97781 | 7922 ft | 261 kts | 265° |
| 2026-04-29 19:08 | 29.69139 | 106.95710 | 7922 ft | 259 kts | 264° |
| 2026-04-29 19:08 | 29.69002 | 106.93693 | 7921 ft | 259 kts | 264° |
| 2026-04-29 19:09 | 29.68864 | 106.91631 | 7920 ft | 258 kts | 265° |
| 2026-04-29 19:09 | 29.68736 | 106.89569 | 7919 ft | 258 kts | 268° |
| 2026-04-29 19:09 | 29.68855 | 106.87512 | 7923 ft | 259 kts | 279° |
| 2026-04-29 19:09 | 29.69306 | 106.85506 | 7919 ft | 260 kts | 287° |
| 2026-04-29 19:10 | 29.69843 | 106.83519 | 7913 ft | 260 kts | 285° |
| 2026-04-29 19:10 | 29.70090 | 106.81520 | 7865 ft | 259 kts | 265° |
| 2026-04-29 19:10 | 29.69661 | 106.79525 | 7736 ft | 256 kts | 243° |
| 2026-04-29 19:10 | 29.68627 | 106.77883 | 7616 ft | 254 kts | 221° |
| 2026-04-29 19:11 | 29.67150 | 106.76799 | 7490 ft | 253 kts | 200° |
| 2026-04-29 19:11 | 29.65470 | 106.76200 | 7374 ft | 253 kts | 196° |
| 2026-04-29 19:11 | 29.63784 | 106.75629 | 7248 ft | 252 kts | 196° |
| 2026-04-29 19:11 | 29.62101 | 106.75054 | 7127 ft | 252 kts | 197° |
| 2026-04-29 19:12 | 29.60426 | 106.74480 | 7003 ft | 251 kts | 197° |
| 2026-04-29 19:12 | 29.58780 | 106.73910 | 6895 ft | 250 kts | 197° |
| 2026-04-29 19:12 | 29.57115 | 106.73329 | 6773 ft | 250 kts | 197° |
| 2026-04-29 19:12 | 29.55994 | 106.72937 | 6692 ft | 249 kts | 197° |
| 2026-04-29 19:13 | 29.53802 | 106.72174 | 6535 ft | 248 kts | 197° |
| 2026-04-29 19:13 | 29.52152 | 106.71601 | 6403 ft | 248 kts | 197° |
| 2026-04-29 19:13 | 29.50504 | 106.71030 | 6284 ft | 247 kts | 196° |
| 2026-04-29 19:13 | 29.48860 | 106.70460 | 6155 ft | 246 kts | 196° |
| 2026-04-29 19:14 | 29.47227 | 106.69894 | 6029 ft | 245 kts | 196° |
| 2026-04-29 19:14 | 29.45596 | 106.69328 | 5926 ft | 245 kts | 196° |
| 2026-04-29 19:14 | 29.43967 | 106.68765 | 5912 ft | 245 kts | 196° |
| 2026-04-29 19:14 | 29.42358 | 106.68211 | 5919 ft | 245 kts | 196° |
| 2026-04-29 19:15 | 29.40729 | 106.67650 | 5913 ft | 242 kts | 196° |
| 2026-04-29 19:15 | 29.39164 | 106.67111 | 5910 ft | 228 kts | 196° |
| 2026-04-29 19:15 | 29.37691 | 106.66538 | 5920 ft | 221 kts | 208° |
| 2026-04-29 19:15 | 29.36626 | 106.65368 | 5911 ft | 210 kts | 240° |
| 2026-04-29 19:16 | 29.36272 | 106.63781 | 5848 ft | 205 kts | 270° |
| 2026-04-29 19:16 | 29.36583 | 106.62237 | 5717 ft | 194 kts | 284° |
| 2026-04-29 19:16 | 29.36964 | 106.60822 | 5589 ft | 183 kts | 284° |
| 2026-04-29 19:16 | 29.37323 | 106.59458 | 5449 ft | 174 kts | 283° |
| 2026-04-29 19:17 | 29.37665 | 106.58159 | 5330 ft | 167 kts | 283° |
| 2026-04-29 19:17 | 29.37997 | 106.56901 | 5205 ft | 164 kts | 284° |
| 2026-04-29 19:17 | 29.38381 | 106.55673 | 5086 ft | 165 kts | 295° |
| 2026-04-29 19:17 | 29.39116 | 106.54660 | 4964 ft | 168 kts | 320° |
| 2026-04-29 19:18 | 29.40159 | 106.54061 | 4841 ft | 170 kts | 345° |
| 2026-04-29 19:18 | 29.40934 | 106.53959 | 4754 ft | 170 kts | 3° |
| 2026-04-29 19:18 | 29.42448 | 106.54367 | 4595 ft | 169 kts | 18° |
| 2026-04-29 19:18 | 29.43574 | 106.54756 | 4470 ft | 169 kts | 18° |
| 2026-04-29 19:19 | 29.44696 | 106.55144 | 4339 ft | 168 kts | 19° |
| 2026-04-29 19:19 | 29.45804 | 106.55525 | 4237 ft | 162 kts | 19° |
| 2026-04-29 19:19 | 29.46877 | 106.55896 | 4108 ft | 160 kts | 19° |
| 2026-04-29 19:19 | 29.47943 | 106.56264 | 3979 ft | 160 kts | 19° |
| 2026-04-29 19:20 | 29.49006 | 106.56632 | 3855 ft | 159 kts | 19° |
| 2026-04-29 19:20 | 29.50066 | 106.56998 | 3731 ft | 159 kts | 19° |
| 2026-04-29 19:20 | 29.51119 | 106.57362 | 3643 ft | 157 kts | 20° |
| 2026-04-29 19:20 | 29.52157 | 106.57721 | 3644 ft | 158 kts | 20° |
| 2026-04-29 19:21 | 29.53209 | 106.58085 | 3650 ft | 158 kts | 19° |
| 2026-04-29 19:21 | 29.54264 | 106.58450 | 3650 ft | 158 kts | 20° |
| 2026-04-29 19:21 | 29.55320 | 106.58815 | 3648 ft | 159 kts | 20° |
| 2026-04-29 19:21 | 29.56376 | 106.59180 | 3649 ft | 158 kts | 20° |
| 2026-04-29 19:22 | 29.57430 | 106.59545 | 3647 ft | 158 kts | 20° |
| 2026-04-29 19:22 | 29.58483 | 106.59909 | 3649 ft | 158 kts | 19° |
| 2026-04-29 19:22 | 29.59526 | 106.60270 | 3580 ft | 159 kts | 20° |
| 2026-04-29 19:22 | 29.60581 | 106.60635 | 3429 ft | 158 kts | 20° |
| 2026-04-29 19:23 | 29.61627 | 106.60998 | 3238 ft | 156 kts | 20° |
| 2026-04-29 19:23 | 29.62664 | 106.61357 | 3043 ft | 154 kts | 20° |
| 2026-04-29 19:23 | 29.63685 | 106.61711 | 2832 ft | 152 kts | 20° |
| 2026-04-29 19:23 | 29.64693 | 106.62060 | 2637 ft | 150 kts | 20° |
| 2026-04-29 19:24 | 29.65689 | 106.62403 | 2439 ft | 148 kts | 19° |
| 2026-04-29 19:24 | 29.66673 | 106.62745 | 2229 ft | 147 kts | 18° |
| 2026-04-29 19:24 | 29.67646 | 106.63081 | 1994 ft | 144 kts | 18° |
| 2026-04-29 19:24 | 29.68598 | 106.63416 | 1822 ft | 143 kts | 17° |
| 2026-04-29 19:25 | 29.69530 | 106.63739 | 1604 ft | 141 kts | 17° |
| 2026-04-29 19:25 | 29.70463 | 106.64065 | 1434 ft | 141 kts | 16° |
| 2026-04-29 19:25 | 29.71351 | 106.64366 | 1357 ft | 117 kts | 16° |
| 2026-04-29 19:25 | 29.71852 | 106.64538 | 1357 ft | 39 kts | 17° |
| 2026-04-29 19:26 | 29.72036 | 106.64604 | 1355 ft | 25 kts | 19° |
| 2026-04-29 19:26 | 29.72135 | 106.64677 | 1353 ft | 9 kts | 39° |
| 2026-04-29 19:26 | 29.72150 | 106.64743 | 1355 ft | 10 kts | 105° |
| 2026-04-29 19:26 | 29.72130 | 106.64821 | 1355 ft | 11 kts | 107° |
| 2026-04-29 19:27 | 29.72105 | 106.64911 | 1356 ft | 13 kts | 107° |
| 2026-04-29 19:27 | 29.72077 | 106.65019 | 1355 ft | 16 kts | 107° |
| 2026-04-29 19:27 | 29.72043 | 106.65151 | 1353 ft | 19 kts | 107° |
| 2026-04-29 19:27 | 29.72017 | 106.65248 | 1352 ft | 11 kts | 107° |
| 2026-04-29 19:28 | 29.71975 | 106.65302 | 1350 ft | 11 kts | 176° |
| 2026-04-29 19:28 | 29.71897 | 106.65280 | 1350 ft | 12 kts | 197° |
| 2026-04-29 19:28 | 29.71808 | 106.65250 | 1352 ft | 14 kts | 194° |
| 2026-04-29 19:28 | 29.71735 | 106.65233 | 1351 ft | 8 kts | 189° |
| 2026-04-29 19:29 | 29.71707 | 106.65213 | 1351 ft | 5 kts | 243° |
| 2026-04-29 19:29 | 29.71706 | 106.65172 | 1352 ft | 5 kts | 272° |
| 2026-04-29 19:29 | 29.71707 | 106.65162 | 1352 ft | 0 kts | 273° |